createdAt,value
2023-12-11T00:01:50.748Z,14.82
2023-12-11T00:04:18.764Z,13.80
2023-12-11T00:06:45.854Z,11.00
2023-12-11T00:09:14.365Z,7.18
2023-12-11T00:11:41.762Z,10.82
2023-12-11T00:14:09.120Z,9.82
2023-12-11T00:16:36.101Z,7.53
2023-12-11T00:19:03.128Z,8.82
2023-12-11T00:21:30.370Z,12.00
2023-12-11T00:23:57.360Z,10.73
2023-12-11T00:26:24.446Z,15.88
2023-12-11T00:28:51.434Z,15.90
2023-12-11T00:31:18.570Z,12.80
2023-12-11T00:33:45.935Z,14.98
2023-12-11T00:36:13.083Z,12.70
2023-12-11T00:38:40.037Z,12.05
2023-12-11T00:41:08.367Z,12.43
2023-12-11T00:43:44.649Z,14.27
2023-12-11T00:46:20.205Z,9.13
2023-12-11T00:48:47.513Z,12.10
2023-12-11T00:51:21.718Z,12.45
2023-12-11T00:53:48.785Z,8.52
2023-12-11T00:56:15.961Z,11.20
2023-12-11T00:58:43.089Z,17.63
2023-12-11T01:01:10.297Z,11.13
2023-12-11T01:03:37.820Z,10.27
2023-12-11T01:06:05.436Z,13.27
2023-12-11T01:08:34.123Z,13.65
2023-12-11T01:11:01.194Z,10.85
2023-12-11T01:13:28.328Z,12.88
2023-12-11T01:15:55.386Z,16.65
2023-12-11T01:18:22.773Z,16.30
2023-12-11T01:20:49.830Z,19.38
2023-12-11T01:23:16.853Z,15.23
2023-12-11T01:25:44.028Z,13.18
2023-12-11T01:28:11.074Z,12.80
2023-12-11T01:30:38.313Z,12.88
2023-12-11T01:33:05.568Z,14.73
2023-12-11T01:35:35.328Z,14.82
2023-12-11T01:38:02.312Z,10.07
2023-12-11T01:40:29.663Z,9.25
2023-12-11T01:43:07.022Z,9.00
2023-12-11T01:48:05.629Z,8.30
2023-12-11T01:50:32.831Z,10.35
2023-12-11T01:53:00.173Z,10.20
2023-12-11T01:55:27.183Z,7.47
2023-12-11T01:57:54.337Z,13.13
2023-12-11T02:00:21.286Z,10.88
2023-12-11T02:02:48.274Z,8.63
2023-12-11T02:05:15.421Z,14.90
2023-12-11T02:07:42.332Z,13.70
2023-12-11T02:10:09.931Z,11.57
2023-12-11T02:12:37.031Z,18.45
2023-12-11T02:15:04.379Z,6.88
2023-12-11T02:17:31.844Z,9.00
2023-12-11T02:19:59.157Z,9.73
2023-12-11T02:22:26.090Z,9.00
2023-12-11T02:24:57.307Z,8.30
2023-12-11T02:27:24.461Z,7.32
2023-12-11T02:29:54.574Z,8.82
2023-12-11T02:32:21.512Z,9.30
2023-12-11T02:34:49.644Z,11.43
2023-12-11T02:37:16.736Z,10.90
2023-12-11T02:39:45.630Z,12.73
2023-12-11T02:42:12.735Z,10.70
2023-12-11T02:44:40.177Z,17.67
2023-12-11T02:47:07.187Z,10.13
2023-12-11T02:49:34.254Z,9.18
2023-12-11T02:52:01.343Z,10.75
2023-12-11T02:54:28.330Z,13.18
2023-12-11T02:56:55.279Z,10.05
2023-12-11T02:59:22.255Z,6.70
2023-12-11T03:01:49.279Z,8.57
2023-12-11T03:04:16.438Z,13.00
2023-12-11T03:06:43.492Z,8.68
2023-12-11T03:09:10.565Z,9.95
2023-12-11T03:11:37.577Z,11.88
2023-12-11T03:14:04.552Z,6.15
2023-12-11T03:16:31.593Z,4.70
2023-12-11T03:18:58.604Z,6.88
2023-12-11T03:21:25.566Z,9.20
2023-12-11T03:23:52.614Z,9.23
2023-12-11T03:26:19.594Z,9.90
2023-12-11T03:28:46.619Z,9.15
2023-12-11T03:31:13.716Z,9.18
2023-12-11T03:33:40.785Z,6.22
2023-12-11T03:36:08.171Z,4.95
2023-12-11T03:38:35.140Z,5.38
2023-12-11T03:41:02.258Z,5.28
2023-12-11T03:43:29.390Z,5.35
2023-12-11T03:45:57.161Z,7.05
2023-12-11T03:48:24.442Z,6.70
2023-12-11T03:50:51.441Z,5.78
2023-12-11T03:53:18.366Z,5.63
2023-12-11T03:55:45.397Z,9.10
2023-12-11T03:58:12.384Z,7.00
2023-12-11T04:00:39.624Z,5.55
2023-12-11T04:03:06.741Z,7.20
2023-12-11T04:05:33.801Z,6.45
2023-12-11T04:08:00.871Z,9.38
2023-12-11T04:10:27.889Z,6.50
2023-12-11T04:12:54.966Z,10.13
2023-12-11T04:15:21.914Z,6.25
2023-12-11T04:17:48.971Z,8.13
2023-12-11T04:20:16.048Z,5.40
2023-12-11T04:22:43.095Z,4.25
2023-12-11T04:25:10.118Z,5.95
2023-12-11T04:27:37.324Z,4.07
2023-12-11T04:30:05.774Z,3.42
2023-12-11T04:32:33.501Z,4.28
2023-12-11T04:35:00.573Z,3.83
2023-12-11T04:37:28.150Z,4.88
2023-12-11T04:39:55.339Z,6.13
2023-12-11T04:42:22.287Z,7.25
2023-12-11T04:44:49.282Z,11.35
2023-12-11T04:47:16.235Z,9.30
2023-12-11T04:49:44.192Z,4.47
2023-12-11T04:52:11.379Z,6.03
2023-12-11T04:54:38.698Z,5.43
2023-12-11T04:57:05.743Z,5.10
2023-12-11T04:59:32.711Z,4.03
2023-12-11T05:01:59.839Z,4.07
2023-12-11T05:04:26.877Z,3.50
2023-12-11T05:06:53.910Z,4.00
2023-12-11T05:09:20.994Z,5.50
2023-12-11T05:11:47.924Z,3.50
2023-12-11T05:14:16.356Z,6.20
2023-12-11T05:16:43.361Z,5.95
2023-12-11T05:19:10.324Z,7.38
2023-12-11T05:21:37.348Z,7.82
2023-12-11T05:24:04.683Z,6.60
2023-12-11T05:26:31.708Z,5.53
2023-12-11T05:29:01.431Z,5.05
2023-12-11T05:31:28.556Z,6.57
2023-12-11T05:33:55.688Z,5.97
2023-12-11T05:36:22.734Z,10.30
2023-12-11T05:38:49.740Z,9.95
2023-12-11T05:41:16.784Z,8.18
2023-12-11T05:43:43.752Z,10.88
2023-12-11T05:46:11.497Z,7.30
2023-12-11T05:48:38.680Z,4.55
2023-12-11T05:51:06.083Z,6.28
2023-12-11T05:53:33.070Z,4.45
2023-12-11T05:56:00.125Z,4.38
2023-12-11T05:58:27.170Z,3.92
2023-12-11T06:00:54.322Z,4.30
2023-12-11T06:03:21.343Z,4.60
2023-12-11T06:05:48.317Z,5.30
2023-12-11T06:08:15.337Z,5.85
2023-12-11T06:10:42.329Z,3.90
2023-12-11T06:13:09.363Z,4.88
2023-12-11T06:15:36.429Z,3.72
2023-12-11T06:18:03.535Z,5.80
2023-12-11T06:20:30.714Z,4.68
2023-12-11T06:22:57.709Z,5.72
2023-12-11T06:25:24.654Z,7.10
2023-12-11T06:27:53.190Z,9.02
2023-12-11T06:30:20.457Z,9.40
2023-12-11T06:32:47.591Z,10.48
2023-12-11T06:35:14.667Z,8.18
2023-12-11T06:37:41.723Z,6.38
2023-12-11T06:40:10.287Z,8.93
2023-12-11T06:42:40.183Z,8.80
2023-12-11T06:45:09.810Z,4.22
2023-12-11T06:47:39.973Z,9.15
2023-12-11T06:50:07.456Z,7.43
2023-12-11T06:52:34.723Z,6.22
2023-12-11T06:55:03.096Z,7.60
2023-12-11T06:57:30.378Z,5.50
2023-12-11T06:59:57.572Z,6.75
2023-12-11T07:02:24.612Z,4.57
2023-12-11T07:04:51.805Z,4.25
2023-12-11T07:07:19.204Z,5.20
2023-12-11T07:09:48.042Z,3.47
2023-12-11T07:12:15.135Z,3.30
2023-12-11T07:14:42.457Z,2.92
2023-12-11T07:17:09.532Z,5.38
2023-12-11T07:19:36.708Z,5.47
2023-12-11T07:22:03.830Z,9.57
2023-12-11T07:24:31.159Z,7.45
2023-12-11T07:26:58.751Z,4.35
2023-12-11T07:29:25.811Z,4.55
2023-12-11T07:31:53.207Z,13.05
2023-12-11T07:34:23.177Z,3.85
2023-12-11T07:36:53.515Z,8.73
2023-12-11T07:39:20.541Z,3.93
2023-12-11T07:41:47.521Z,6.20
2023-12-11T07:44:14.464Z,4.18
2023-12-11T07:46:43.312Z,11.88
2023-12-11T07:49:10.717Z,7.65
2023-12-11T07:51:37.897Z,5.80
2023-12-11T07:54:05.007Z,4.05
2023-12-11T07:56:31.984Z,4.38
2023-12-11T07:58:59.001Z,2.88
2023-12-11T08:01:32.864Z,10.18
2023-12-11T08:04:00.873Z,7.05
2023-12-11T08:06:28.444Z,4.90
2023-12-11T08:08:56.446Z,1.73
2023-12-11T08:11:26.533Z,4.25
2023-12-11T08:13:53.658Z,3.65
2023-12-11T08:16:21.079Z,5.18
2023-12-11T08:18:49.522Z,3.65
2023-12-11T08:21:19.651Z,3.33
2023-12-11T08:23:49.051Z,12.02
2023-12-11T08:26:20.162Z,9.60
2023-12-11T08:28:48.037Z,11.27
2023-12-11T08:31:15.517Z,8.60
2023-12-11T08:33:43.027Z,9.07
2023-12-11T08:36:10.637Z,12.00
2023-12-11T08:38:37.946Z,9.18
2023-12-11T08:41:05.124Z,7.40
2023-12-11T08:43:32.096Z,20.58
2023-12-11T08:45:59.163Z,9.45
2023-12-11T08:48:28.614Z,10.98
2023-12-11T08:50:56.354Z,11.02
2023-12-11T08:53:24.410Z,8.93
2023-12-11T08:55:51.626Z,4.60
2023-12-11T08:58:19.018Z,3.38
2023-12-11T09:00:46.321Z,3.42
2023-12-11T09:03:13.739Z,3.25
2023-12-11T09:05:40.866Z,4.75
2023-12-11T09:08:07.912Z,2.65
2023-12-11T09:10:37.104Z,5.65
2023-12-11T09:13:04.146Z,4.28
2023-12-11T09:15:31.492Z,3.67
2023-12-11T09:17:58.844Z,8.18
2023-12-11T09:20:26.272Z,7.38
2023-12-11T09:22:53.371Z,3.25
2023-12-11T09:25:20.464Z,2.88
2023-12-11T09:27:48.906Z,2.58
2023-12-11T09:30:16.486Z,3.88
2023-12-11T09:32:43.796Z,5.50
2023-12-11T09:35:11.665Z,13.25
2023-12-11T09:37:38.924Z,6.93
2023-12-11T09:40:07.885Z,6.05
2023-12-11T09:42:35.848Z,7.85
2023-12-11T09:45:02.785Z,6.95
2023-12-11T09:47:32.912Z,6.13
2023-12-11T09:50:01.342Z,7.25
2023-12-11T09:52:28.988Z,3.97
2023-12-11T09:54:55.922Z,5.13
2023-12-11T09:57:22.966Z,4.07
2023-12-11T09:59:51.781Z,5.13
2023-12-11T10:02:19.227Z,8.95
2023-12-11T10:05:15.562Z,7.45
2023-12-11T10:07:43.314Z,9.23
2023-12-11T10:10:27.620Z,12.57
2023-12-11T10:12:55.655Z,11.90
2023-12-11T10:15:28.469Z,8.90
2023-12-11T10:18:03.895Z,7.32
2023-12-11T10:20:31.987Z,5.78
2023-12-11T10:23:03.969Z,3.03
2023-12-11T10:25:32.645Z,3.50
2023-12-11T10:28:07.451Z,4.90
2023-12-11T10:30:36.818Z,5.35
2023-12-11T10:33:04.291Z,5.53
2023-12-11T10:35:32.497Z,8.60
2023-12-11T10:38:01.376Z,5.88
2023-12-11T10:40:41.533Z,7.32
2023-12-11T10:43:09.306Z,6.20
2023-12-11T10:45:36.330Z,6.40
2023-12-11T10:48:04.559Z,10.43
2023-12-11T10:50:32.553Z,6.07
2023-12-11T10:53:01.998Z,8.32
2023-12-11T10:55:30.967Z,3.92
2023-12-11T10:57:58.332Z,4.00
2023-12-11T11:00:25.601Z,3.90
2023-12-11T11:02:53.715Z,9.00
2023-12-11T11:05:21.218Z,3.83
2023-12-11T11:08:11.449Z,3.67
2023-12-11T11:11:01.913Z,5.68
2023-12-11T11:13:34.718Z,4.75
2023-12-11T11:16:02.194Z,4.43
2023-12-11T11:18:29.323Z,3.40
2023-12-11T11:21:22.971Z,3.67
2023-12-11T11:23:49.986Z,3.63
2023-12-11T11:26:36.146Z,6.10
2023-12-11T11:29:04.169Z,6.05
2023-12-11T11:31:50.947Z,5.60
2023-12-11T11:34:46.739Z,4.10
2023-12-11T11:37:15.762Z,7.15
2023-12-11T11:40:03.861Z,7.97
2023-12-11T11:42:37.699Z,5.35
2023-12-11T11:45:06.595Z,7.57
2023-12-11T11:47:38.688Z,4.05
2023-12-11T11:50:08.215Z,6.72
2023-12-11T11:52:43.208Z,8.45
2023-12-11T11:55:38.680Z,7.50
2023-12-11T11:58:13.473Z,7.28
2023-12-11T12:00:40.679Z,7.53
2023-12-11T12:03:09.864Z,2.97
2023-12-11T12:05:38.125Z,4.30
2023-12-11T12:08:09.244Z,3.83
2023-12-11T12:10:36.360Z,3.42
2023-12-11T12:13:03.932Z,4.88
2023-12-11T12:15:31.106Z,5.40
2023-12-11T12:18:10.368Z,5.22
2023-12-11T12:20:37.699Z,7.15
2023-12-11T12:23:08.669Z,8.52
2023-12-11T12:28:06.450Z,4.45
2023-12-11T12:30:33.640Z,4.07
2023-12-11T12:33:00.810Z,7.22
2023-12-11T12:35:28.308Z,4.68
2023-12-11T12:37:57.031Z,6.72
2023-12-11T12:40:24.573Z,9.52
2023-12-11T12:42:51.872Z,4.13
2023-12-11T12:45:34.334Z,5.18
2023-12-11T12:48:04.714Z,6.55
2023-12-11T12:50:32.196Z,8.65
2023-12-11T12:53:13.670Z,8.15
2023-12-11T12:55:41.050Z,5.05
2023-12-11T12:58:09.154Z,4.15
2023-12-11T13:00:36.780Z,6.78
2023-12-11T13:03:09.720Z,6.35
2023-12-11T13:05:46.868Z,6.25
2023-12-11T13:08:15.907Z,4.57
2023-12-11T13:10:56.583Z,4.95
2023-12-11T13:13:28.036Z,5.43
2023-12-11T13:15:56.260Z,4.68
2023-12-11T13:18:23.494Z,4.28
2023-12-11T13:20:50.859Z,7.15
2023-12-11T13:23:19.569Z,2.63
2023-12-11T13:25:46.736Z,11.68
2023-12-11T13:28:14.046Z,7.10
2023-12-11T13:30:41.156Z,5.90
2023-12-11T13:33:08.339Z,6.90
2023-12-11T13:35:35.920Z,3.38
2023-12-11T13:38:03.344Z,9.48
2023-12-11T13:40:30.830Z,7.22
2023-12-11T13:42:57.887Z,6.90
2023-12-11T13:45:25.046Z,3.92
2023-12-11T13:47:52.688Z,5.38
2023-12-11T13:50:19.868Z,5.38
2023-12-11T13:52:47.937Z,10.35
2023-12-11T13:55:15.622Z,8.70
2023-12-11T13:57:42.864Z,6.00
2023-12-11T14:00:10.614Z,5.25
2023-12-11T14:02:59.866Z,6.72
2023-12-11T14:05:24.683Z,6.80
2023-12-11T14:07:53.573Z,10.13
2023-12-11T14:10:20.692Z,12.07
2023-12-11T14:12:47.817Z,24.63
2023-12-11T14:15:14.896Z,21.15
2023-12-11T14:17:42.014Z,17.50
2023-12-11T14:20:12.420Z,12.38
2023-12-11T14:22:41.248Z,7.95
2023-12-11T14:25:09.733Z,5.57
2023-12-11T14:27:36.973Z,5.15
2023-12-11T14:30:04.688Z,10.15
2023-12-11T14:32:32.612Z,7.22
2023-12-11T14:34:59.657Z,4.60
2023-12-11T14:37:26.778Z,8.73
2023-12-11T14:39:54.247Z,10.20
2023-12-11T14:42:24.827Z,9.10
2023-12-11T14:44:52.205Z,9.93
2023-12-11T14:47:19.291Z,13.50
2023-12-11T14:49:46.339Z,17.90
2023-12-11T14:52:13.640Z,11.70
2023-12-11T14:54:40.805Z,11.18
2023-12-11T14:57:07.813Z,16.70
2023-12-11T14:59:35.088Z,7.30
2023-12-11T15:02:02.803Z,8.52
2023-12-11T15:04:30.046Z,7.90
2023-12-11T15:06:57.537Z,10.20
2023-12-11T15:09:24.573Z,14.95
2023-12-11T15:11:51.603Z,10.18
2023-12-11T15:14:19.029Z,6.45
2023-12-11T15:16:47.359Z,11.32
2023-12-11T15:19:14.542Z,13.70
2023-12-11T15:21:41.675Z,17.25
2023-12-11T15:24:08.820Z,11.30
2023-12-11T15:26:35.850Z,10.13
2023-12-11T15:29:07.263Z,8.75
2023-12-11T15:31:34.853Z,15.48
2023-12-11T15:34:02.368Z,18.27
2023-12-11T15:36:29.843Z,18.80
2023-12-11T15:38:56.883Z,21.08
2023-12-11T15:41:23.847Z,18.88
2023-12-11T15:43:50.825Z,14.68
2023-12-11T15:46:18.015Z,9.10
2023-12-11T15:48:47.248Z,11.95
2023-12-11T15:51:20.528Z,10.70
2023-12-11T15:53:47.678Z,11.27
2023-12-11T15:56:17.163Z,11.13
2023-12-11T15:58:44.631Z,9.88
2023-12-11T16:01:12.180Z,8.63
2023-12-11T16:03:40.091Z,13.82
2023-12-11T16:06:08.661Z,10.20
2023-12-11T16:08:37.380Z,7.72
2023-12-11T16:11:04.935Z,13.95
2023-12-11T16:13:32.206Z,11.05
2023-12-11T16:15:59.625Z,13.30
2023-12-11T16:18:26.818Z,7.05
2023-12-11T16:20:54.515Z,6.00
2023-12-11T16:23:21.612Z,8.50
2023-12-11T16:25:56.322Z,7.38
2023-12-11T16:28:30.069Z,11.48
2023-12-11T16:30:57.488Z,7.03
2023-12-11T16:33:25.332Z,6.07
2023-12-11T16:35:52.776Z,6.32
2023-12-11T16:38:19.816Z,6.80
2023-12-11T16:40:46.959Z,6.15
2023-12-11T16:43:14.280Z,6.95
2023-12-11T16:45:44.973Z,6.40
2023-12-11T16:48:12.420Z,8.45
2023-12-11T16:50:40.019Z,12.00
2023-12-11T16:53:07.696Z,14.43
2023-12-11T16:55:34.845Z,15.00
2023-12-11T16:58:02.389Z,17.65
2023-12-11T17:00:30.080Z,15.13
2023-12-11T17:02:57.131Z,22.35
2023-12-11T17:05:24.118Z,22.98
2023-12-11T17:07:52.051Z,23.10
2023-12-11T17:10:19.405Z,27.70
2023-12-11T17:12:47.134Z,23.23
2023-12-11T17:15:14.233Z,19.35
2023-12-11T17:17:41.597Z,24.02
2023-12-11T17:20:09.360Z,16.58
2023-12-11T17:22:36.977Z,13.27
2023-12-11T17:25:05.019Z,11.18
2023-12-11T17:27:33.016Z,10.07
2023-12-11T17:30:03.402Z,15.15
2023-12-11T17:32:32.835Z,11.95
2023-12-11T17:35:02.798Z,10.65
2023-12-11T17:37:30.171Z,14.93
2023-12-11T17:39:57.448Z,13.68
2023-12-11T17:42:27.203Z,17.85
2023-12-11T17:44:54.474Z,16.33
2023-12-11T17:47:21.556Z,16.27
2023-12-11T17:49:49.215Z,11.32
2023-12-11T17:52:16.383Z,13.00
2023-12-11T17:54:43.728Z,9.82
2023-12-11T17:57:10.845Z,16.45
2023-12-11T17:59:37.880Z,14.70
2023-12-11T18:02:05.648Z,16.08
2023-12-11T18:04:32.870Z,17.75
2023-12-11T18:06:59.987Z,12.32
2023-12-11T18:09:27.478Z,13.93
2023-12-11T18:11:54.760Z,15.90
2023-12-11T18:14:24.084Z,17.92
2023-12-11T18:16:51.083Z,17.55
2023-12-11T18:19:18.328Z,16.90
2023-12-11T18:21:45.587Z,13.13
2023-12-11T18:24:12.627Z,11.77
2023-12-11T18:26:39.914Z,9.38
2023-12-11T18:29:06.983Z,10.90
2023-12-11T18:31:34.732Z,11.93
2023-12-11T18:34:01.907Z,13.27
2023-12-11T18:36:29.623Z,13.65
2023-12-11T18:38:56.655Z,16.38
2023-12-11T18:41:24.161Z,24.58
2023-12-11T18:43:51.532Z,20.08
2023-12-11T18:46:19.953Z,15.63
2023-12-11T18:48:49.504Z,21.58
2023-12-11T18:51:25.056Z,11.07
2023-12-11T18:53:52.158Z,11.23
2023-12-11T18:56:20.424Z,9.57
2023-12-11T18:58:47.460Z,18.33
2023-12-11T19:01:14.696Z,15.65
2023-12-11T19:03:41.837Z,23.10
2023-12-11T19:06:09.455Z,24.05
2023-12-11T19:08:37.028Z,26.30
2023-12-11T19:11:05.880Z,25.83
2023-12-11T19:13:33.768Z,28.38
2023-12-11T19:16:00.955Z,33.50
2023-12-11T19:18:28.478Z,26.85
2023-12-11T19:20:55.548Z,22.08
2023-12-11T19:23:23.033Z,19.65
2023-12-11T19:25:52.272Z,25.40
2023-12-11T19:28:20.438Z,20.15
2023-12-11T19:30:48.093Z,14.52
2023-12-11T19:33:15.305Z,15.25
2023-12-11T19:35:45.261Z,12.55
2023-12-11T19:38:13.435Z,10.13
2023-12-11T19:40:40.698Z,16.08
2023-12-11T19:43:08.283Z,12.93
2023-12-11T19:45:35.642Z,26.05
2023-12-11T19:48:03.172Z,21.40
2023-12-11T19:50:30.920Z,32.25
2023-12-11T19:52:58.039Z,24.17
2023-12-11T19:55:25.150Z,17.45
2023-12-11T19:57:52.294Z,14.43
2023-12-11T20:00:19.574Z,20.98
2023-12-11T20:02:47.578Z,29.15
2023-12-11T20:05:14.687Z,25.60
2023-12-11T20:07:41.753Z,22.98
2023-12-11T20:10:10.187Z,13.07
2023-12-11T20:12:38.088Z,13.80
2023-12-11T20:15:05.716Z,15.18
2023-12-11T20:20:05.525Z,11.43
2023-12-11T20:22:33.275Z,14.68
2023-12-11T20:25:00.420Z,12.90
2023-12-11T20:27:27.485Z,11.30
2023-12-11T20:29:54.523Z,11.07
2023-12-11T20:32:21.507Z,9.55
2023-12-11T20:34:48.536Z,8.18
2023-12-11T20:37:15.642Z,6.50
2023-12-11T20:39:42.622Z,7.68
2023-12-11T20:42:09.893Z,10.95
2023-12-11T20:44:37.186Z,10.75
2023-12-11T20:47:04.529Z,11.93
2023-12-11T20:49:34.907Z,7.30
2023-12-11T20:52:02.438Z,12.27
2023-12-11T20:54:29.873Z,15.68
2023-12-11T20:56:57.151Z,12.20
2023-12-11T20:59:24.420Z,12.82
2023-12-11T21:01:52.117Z,12.63
2023-12-11T21:04:19.554Z,16.90
2023-12-11T21:06:47.442Z,20.05
2023-12-11T21:09:16.964Z,22.92
2023-12-11T21:11:43.970Z,32.25
2023-12-11T21:14:11.315Z,20.95
2023-12-11T21:16:38.617Z,22.50
2023-12-11T21:19:05.997Z,19.85
2023-12-11T21:21:33.549Z,8.18
2023-12-11T21:24:00.609Z,10.18
2023-12-11T21:26:29.804Z,14.40
2023-12-11T21:28:57.039Z,16.23
2023-12-11T21:31:29.891Z,11.90
2023-12-11T21:33:57.572Z,15.50
2023-12-11T21:36:25.903Z,12.27
2023-12-11T21:38:53.007Z,20.88
2023-12-11T21:41:20.038Z,9.32
2023-12-11T21:43:48.556Z,9.50
2023-12-11T21:46:16.045Z,7.97
2023-12-11T21:48:46.163Z,6.57
2023-12-11T21:51:17.028Z,5.85
2023-12-11T21:53:44.236Z,3.88
2023-12-11T21:56:11.290Z,5.20
2023-12-11T21:58:38.393Z,7.30
2023-12-11T22:01:05.962Z,6.43
2023-12-11T22:03:33.320Z,8.05
2023-12-11T22:06:00.361Z,11.25
2023-12-11T22:08:27.865Z,11.48
2023-12-11T22:10:55.179Z,10.35
2023-12-11T22:13:22.447Z,12.82
2023-12-11T22:15:49.513Z,11.32
2023-12-11T22:18:16.901Z,6.50
2023-12-11T22:20:44.523Z,12.18
2023-12-11T22:23:12.193Z,19.00
2023-12-11T22:25:39.209Z,16.08
2023-12-11T22:28:06.364Z,12.40
2023-12-11T22:30:33.440Z,12.00
2023-12-11T22:33:00.697Z,13.07
2023-12-11T22:35:27.899Z,7.38
2023-12-11T22:37:54.990Z,5.75
2023-12-11T22:40:22.176Z,4.13
2023-12-11T22:42:49.343Z,4.93
2023-12-11T22:45:17.849Z,5.43
2023-12-11T22:47:45.175Z,3.83
2023-12-11T22:50:12.323Z,3.63
2023-12-11T22:52:39.873Z,3.17
2023-12-11T22:55:07.420Z,2.15
2023-12-11T22:57:34.696Z,2.47
2023-12-11T23:00:01.809Z,3.55
2023-12-11T23:02:28.972Z,2.67
2023-12-11T23:04:56.937Z,3.08
2023-12-11T23:07:24.418Z,4.50
2023-12-11T23:09:51.598Z,8.50
2023-12-11T23:12:18.758Z,11.27
2023-12-11T23:14:45.824Z,8.48
2023-12-11T23:17:12.931Z,6.80
2023-12-11T23:19:40.120Z,6.03
2023-12-11T23:22:07.348Z,4.30
2023-12-11T23:24:34.400Z,5.20
2023-12-11T23:27:01.483Z,4.22
2023-12-11T23:29:28.555Z,7.30
2023-12-11T23:31:55.550Z,4.57
2023-12-11T23:34:22.570Z,3.17
2023-12-11T23:36:49.615Z,4.85
2023-12-11T23:39:16.504Z,2.60
2023-12-11T23:41:44.819Z,3.15
2023-12-11T23:44:12.078Z,3.92
2023-12-11T23:46:39.236Z,2.80
2023-12-11T23:49:06.433Z,3.05
2023-12-11T23:51:33.627Z,4.30
2023-12-11T23:54:00.794Z,4.43
2023-12-11T23:56:27.705Z,4.13
2023-12-11T23:58:54.706Z,5.55
